This is the latest recevied weather packets stored in our database for station/object KO4IEJ-15. If no packets are shown the sender has not sent any weather packets the latest 10 day(s).
| Time | Temp. | Humidity | Pressure | Rain* | Wind** | Luminosity | Snow |
|---|---|---|---|---|---|---|---|
| 1777370431 | 19.44° C | 98% | 1017.9 hPa | 0 mm | - | - | - |
| 1777369531 | 18.89° C | 98% | 1017.7 hPa | 0 mm | - | - | - |
| 1777359649 | 17.78° C | 97% | 1017.8 hPa | 0 mm | - | - | - |
| 1777354237 | 18.89° C | 95% | 1018.7 hPa | 0 mm | - | - | - |
| 1777353336 | 18.89° C | 95% | 1018.7 hPa | 0 mm | - | - | - |
| 1777352438 | 18.89° C | 95% | 1018.8 hPa | 0 mm | - | - | - |
| 1777347035 | 20° C | 93% | 1018.9 hPa | 0 mm | - | - | - |
| 1777343433 | 20.56° C | 92% | 1019.2 hPa | 0 mm | - | - | - |
| 1777340734 | 21.11° C | 91% | 1018.8 hPa | 0 mm | - | - | - |
| 1777335339 | 22.22° C | 87% | 1017.9 hPa | 0 mm | - | - | - |
| 1777329030 | 23.89° C | 82% | 1017 hPa | 0 mm | - | - | - |
| 1777327231 | 23.89° C | 79% | 1016.7 hPa | 0 mm | - | - | - |
| 1777326333 | 23.89° C | 80% | 1016.7 hPa | 0 mm | - | - | - |
| 1777320933 | 24.44° C | 80% | 1016.5 hPa | 0 mm | - | - | - |
| 1777313731 | 24.44° C | 79% | 1016.8 hPa | 0 mm | - | - | - |
| 1777312833 | 25° C | 81% | 1016.8 hPa | 0 mm | - | - | - |
| 1777307431 | 25.56° C | 79% | 1016.6 hPa | 0 mm | - | - | - |
| 1777306543 | 25° C | 80% | 1016.7 hPa | 0 mm | - | - | - |
| 1777305632 | 25.56° C | 81% | 1016.7 hPa | 0 mm | - | - | - |
| 1777304731 | 25.56° C | 80% | 1016.7 hPa | 0 mm | - | - | - |
| 1777302034 | 24.44° C | 86% | 1016.5 hPa | 0 mm | - | - | - |
| 1777286731 | 21.67° C | 96% | 1013.4 hPa | 0 mm | - | - | - |
| 1777283131 | 21.11° C | 94% | 1012.5 hPa | 0 mm | - | - | - |
| 1777282231 | 21.11° C | 93% | 1012.5 hPa | 0 mm | - | - | - |
| 1777275029 | 20.56° C | 94% | 1011.8 hPa | 0 mm | - | - | - |
* Rain latest hour (hover to see other rain measurements)
** Current wind speed in m/s (hover to see current wind gust speed)